createdAt,value
2018-09-21T00:04:43.502Z,100224.00
2018-09-21T00:10:47.053Z,100222.00
2018-09-21T00:16:50.562Z,100205.00
2018-09-21T00:22:53.974Z,100201.00
2018-09-21T00:28:57.593Z,100204.00
2018-09-21T00:35:01.243Z,100188.00
2018-09-21T00:47:43.206Z,100172.00
2018-09-21T00:53:47.824Z,100160.00
2018-09-21T00:59:51.335Z,100156.00
2018-09-21T01:05:54.743Z,100144.00
2018-09-21T01:11:58.654Z,100143.00
2018-09-21T01:18:02.345Z,100136.00
2018-09-21T01:24:06.181Z,100125.00
2018-09-21T01:30:10.246Z,100114.00
2018-09-21T01:36:14.225Z,100099.00
2018-09-21T01:42:17.909Z,100088.00
2018-09-21T01:48:21.621Z,100082.00
2018-09-21T01:54:25.746Z,100062.00
2018-09-21T02:00:29.246Z,100066.00
2018-09-21T02:06:33.380Z,100053.00
2018-09-21T02:12:37.090Z,100038.00
2018-09-21T02:18:40.730Z,100029.00
2018-09-21T02:24:44.956Z,100009.00
2018-09-21T02:30:51.741Z,99982.00
2018-09-21T02:36:55.464Z,99986.00
2018-09-21T02:43:05.335Z,99962.00
2018-09-21T02:49:09.351Z,99950.00
2018-09-21T02:55:13.457Z,99939.00
2018-09-21T03:01:21.584Z,99928.00
2018-09-21T03:07:25.861Z,99923.00
2018-09-21T03:13:29.260Z,99899.00
2018-09-21T03:19:32.814Z,99885.00
2018-09-21T03:25:36.301Z,99862.00
2018-09-21T03:31:39.957Z,99843.00
2018-09-21T03:37:43.766Z,99847.00
2018-09-21T03:43:47.499Z,99832.00
2018-09-21T03:49:51.254Z,99823.00
2018-09-21T03:55:56.552Z,99810.00
2018-09-21T04:02:00.455Z,99798.00
2018-09-21T04:08:04.350Z,99787.00
2018-09-21T04:14:07.730Z,99772.00
2018-09-21T04:20:11.873Z,99773.00
2018-09-21T04:26:15.382Z,99776.00
2018-09-21T04:32:19.200Z,99772.00
2018-09-21T04:38:22.593Z,99763.00
2018-09-21T04:44:26.105Z,99753.00
2018-09-21T04:50:31.013Z,99748.00
2018-09-21T04:56:35.105Z,99753.00
2018-09-21T05:02:38.881Z,99727.00
2018-09-21T05:08:43.191Z,99756.00
2018-09-21T05:14:47.556Z,99738.00
2018-09-21T05:20:51.889Z,99744.00
2018-09-21T05:26:55.722Z,99733.00
2018-09-21T05:32:59.407Z,99739.00
2018-09-21T05:39:03.471Z,99723.00
2018-09-21T05:45:07.369Z,99718.00
2018-09-21T05:51:10.986Z,99719.00
2018-09-21T05:57:14.433Z,99728.00
2018-09-21T06:03:18.240Z,99741.00
2018-09-21T06:09:22.405Z,99739.00
2018-09-21T06:15:26.723Z,99711.00
2018-09-21T06:21:31.259Z,99733.00
2018-09-21T06:27:36.156Z,99724.00
2018-09-21T06:33:41.010Z,99751.00
2018-09-21T06:39:44.570Z,99763.00
2018-09-21T06:45:48.385Z,99725.00
2018-09-21T06:51:52.201Z,99727.00
2018-09-21T06:57:56.099Z,99748.00
2018-09-21T07:04:00.521Z,99741.00
2018-09-21T07:10:05.293Z,99756.00
2018-09-21T07:16:09.759Z,99755.00
2018-09-21T07:22:14.518Z,99768.00
2018-09-21T07:28:18.047Z,99791.00
2018-09-21T07:34:22.794Z,99786.00
2018-09-21T07:40:26.393Z,99788.00
2018-09-21T07:46:30.181Z,99769.00
2018-09-21T07:52:33.826Z,99758.00
2018-09-21T07:58:38.446Z,99729.00
2018-09-21T08:04:42.165Z,99754.00
2018-09-21T08:10:45.668Z,99761.00
2018-09-21T08:16:49.268Z,99749.00
2018-09-21T08:22:54.871Z,99733.00
2018-09-21T08:28:58.647Z,99733.00
2018-09-21T08:35:02.126Z,99780.00
2018-09-21T08:41:06.187Z,99907.00
2018-09-21T08:47:10.038Z,99999.00
2018-09-21T08:53:13.463Z,100011.00
2018-09-21T08:59:19.838Z,100008.00
2018-09-21T09:05:25.325Z,100000.00
2018-09-21T09:11:28.958Z,100025.00
2018-09-21T09:17:33.612Z,100057.00
2018-09-21T09:23:38.327Z,100113.00
2018-09-21T09:29:41.974Z,100078.00
2018-09-21T09:35:45.491Z,100089.00
2018-09-21T09:41:49.609Z,100092.00
2018-09-21T09:47:53.341Z,100105.00
2018-09-21T09:53:57.251Z,100082.00
2018-09-21T10:00:01.056Z,100092.00
2018-09-21T10:06:05.318Z,100088.00
2018-09-21T10:12:08.855Z,100097.00
2018-09-21T10:18:12.650Z,100097.00
2018-09-21T10:24:16.047Z,100101.00
2018-09-21T10:30:19.483Z,100113.00
2018-09-21T10:36:22.936Z,100119.00
2018-09-21T10:42:27.216Z,100118.00
2018-09-21T10:48:31.202Z,100122.00
2018-09-21T10:54:35.541Z,100123.00
2018-09-21T11:00:45.546Z,100136.00
2018-09-21T11:06:49.792Z,100124.00
2018-09-21T11:12:53.852Z,100116.00
2018-09-21T11:18:57.206Z,100106.00
2018-09-21T11:25:00.671Z,100120.00
2018-09-21T11:31:04.246Z,100136.00
2018-09-21T11:37:07.639Z,100151.00
2018-09-21T11:43:11.158Z,100151.00
2018-09-21T11:49:14.536Z,100135.00
2018-09-21T11:55:18.005Z,100146.00
2018-09-21T12:01:21.620Z,100152.00
2018-09-21T12:07:25.311Z,100152.00
2018-09-21T12:13:30.664Z,100172.00
2018-09-21T12:19:34.238Z,100192.00
2018-09-21T12:25:38.363Z,100195.00
2018-09-21T12:31:41.983Z,100191.00
2018-09-21T12:37:45.369Z,100228.00
2018-09-21T12:43:48.975Z,100232.00
2018-09-21T12:49:52.489Z,100243.00
2018-09-21T12:55:55.934Z,100254.00
2018-09-21T13:01:59.438Z,100262.00
2018-09-21T13:08:02.878Z,100283.00
2018-09-21T13:14:06.575Z,100270.00
2018-09-21T13:20:10.099Z,100286.00
2018-09-21T13:26:13.540Z,100267.00
2018-09-21T13:32:16.954Z,100304.00
2018-09-21T13:38:20.510Z,100330.00
2018-09-21T13:44:23.872Z,100326.00
2018-09-21T13:50:27.297Z,100352.00
2018-09-21T13:56:30.891Z,100353.00
2018-09-21T14:02:35.060Z,100355.00
2018-09-21T14:08:39.294Z,100355.00
2018-09-21T14:14:44.282Z,100351.00
2018-09-21T14:20:48.487Z,100357.00
2018-09-21T14:26:52.094Z,100380.00
2018-09-21T14:32:55.973Z,100385.00
2018-09-21T14:39:00.497Z,100397.00
2018-09-21T14:45:04.312Z,100412.00
2018-09-21T14:51:08.427Z,100414.00
2018-09-21T14:57:12.046Z,100426.00
2018-09-21T15:03:15.946Z,100449.00
2018-09-21T15:09:19.695Z,100434.00
2018-09-21T15:15:24.077Z,100428.00
2018-09-21T15:21:28.517Z,100440.00
2018-09-21T15:27:32.564Z,100446.00
2018-09-21T15:33:37.036Z,100442.00
2018-09-21T15:39:41.712Z,100446.00
2018-09-21T15:45:45.758Z,100465.00
2018-09-21T15:51:50.749Z,100472.00
2018-09-21T15:57:55.460Z,100481.00
2018-09-21T16:04:01.162Z,100481.00
2018-09-21T16:10:04.743Z,100488.00
2018-09-21T16:16:09.764Z,100480.00
2018-09-21T16:22:13.688Z,100476.00
2018-09-21T16:28:17.851Z,100489.00
2018-09-21T16:34:22.495Z,100476.00
2018-09-21T16:40:26.971Z,100486.00
2018-09-21T16:46:31.781Z,100485.00
2018-09-21T16:52:36.528Z,100483.00
2018-09-21T16:58:40.043Z,100515.00
2018-09-21T17:04:44.732Z,100514.00
2018-09-21T17:10:48.934Z,100514.00
2018-09-21T17:16:53.189Z,100520.00
2018-09-21T17:22:57.177Z,100540.00
2018-09-21T17:29:02.960Z,100539.00
2018-09-21T17:35:06.750Z,100549.00
2018-09-21T17:47:53.270Z,100568.00
2018-09-21T17:53:57.268Z,100582.00
2018-09-21T18:00:01.579Z,100601.00
2018-09-21T18:06:06.767Z,100603.00
2018-09-21T18:12:12.955Z,100613.00
2018-09-21T18:18:16.494Z,100598.00
2018-09-21T18:24:20.005Z,100640.00
2018-09-21T18:30:24.927Z,100626.00
2018-09-21T18:36:28.974Z,100642.00
2018-09-21T18:42:33.594Z,100661.00
2018-09-21T18:48:39.139Z,100682.00
2018-09-21T18:54:43.916Z,100654.00
2018-09-21T19:00:48.654Z,100700.00
2018-09-21T19:06:53.623Z,100709.00
2018-09-21T19:12:59.372Z,100710.00
2018-09-21T19:19:04.801Z,100733.00
2018-09-21T19:25:15.126Z,100737.00
2018-09-21T19:31:19.338Z,100750.00
2018-09-21T19:37:23.987Z,100758.00
2018-09-21T19:43:28.333Z,100767.00
2018-09-21T19:49:33.724Z,100772.00
2018-09-21T19:55:44.596Z,100773.00
2018-09-21T20:01:54.267Z,100772.00
2018-09-21T20:08:00.934Z,100773.00
2018-09-21T20:14:07.772Z,100796.00
2018-09-21T20:20:13.391Z,100797.00
2018-09-21T20:27:27.382Z,100795.00
2018-09-21T20:33:32.672Z,100811.00
2018-09-21T20:39:37.160Z,100809.00
2018-09-21T20:45:41.161Z,100820.00
2018-09-21T20:51:45.986Z,100816.00
2018-09-21T20:57:50.246Z,100825.00
2018-09-21T21:03:55.066Z,100836.00
2018-09-21T21:10:05.244Z,100845.00
2018-09-21T21:16:09.477Z,100862.00
2018-09-21T21:22:13.469Z,100860.00
2018-09-21T21:28:18.075Z,100876.00
2018-09-21T21:34:22.115Z,100879.00
2018-09-21T21:40:26.092Z,100891.00
2018-09-21T21:46:31.263Z,100916.00
2018-09-21T21:52:35.493Z,100923.00
2018-09-21T21:58:39.233Z,100931.00
2018-09-21T22:04:43.786Z,100937.00
2018-09-21T22:10:47.681Z,100938.00
2018-09-21T22:16:51.373Z,100952.00
2018-09-21T22:22:56.109Z,100954.00
2018-09-21T22:29:00.214Z,100957.00
2018-09-21T22:35:03.998Z,100974.00
2018-09-21T22:41:08.781Z,100975.00
2018-09-21T22:47:12.565Z,100971.00
2018-09-21T22:53:16.325Z,100999.00
2018-09-21T22:59:26.954Z,101003.00
2018-09-21T23:05:30.758Z,100996.00
2018-09-21T23:11:35.257Z,101011.00
2018-09-21T23:17:39.627Z,101012.00
2018-09-21T23:23:43.470Z,101026.00
2018-09-21T23:29:47.573Z,101037.00
2018-09-21T23:35:51.341Z,101043.00
2018-09-21T23:41:56.113Z,101042.00
2018-09-21T23:47:59.810Z,101048.00
2018-09-21T23:54:03.660Z,101058.00
